Aviation Digital Data Service (ADDS)

Output produced by METARs form (1941 UTC 30 June 2015)
found at http://www.aviationweather.gov/adds/metars/
 
METAR text: KCMI 301853Z 28004KT 10SM SCT032 BKN070 26/19 A2984 RMK AO2 SLP098 T02610189
Conditions at: KCMI (CHAMPAIGN/URBANA, IL, US) observed 1853 UTC 30 June 2015
Temperature: 26.1°C (79°F)
Dewpoint: 18.9°C (66°F) [RH = 65%]
Pressure (altimeter): 29.84 inches Hg (1010.6 mb)
[Sea-level pressure: 1009.8 mb]
Winds: from the W (280 degrees) at 5 MPH (4 knots; 2.1 m/s)
Visibility: 10 or more miles (16+ km)
Ceiling: 7000 feet AGL
Clouds: scattered clouds at 3200 feet AGL
broken clouds at 7000 feet AGL
Weather: no significant weather observed at this time

METAR text: KCMI 301753Z 29007KT 10SM SCT028 OVC050 26/20 A2985 RMK AO2 SLP101 T02610200 10261 20183 58003
Conditions at: KCMI (CHAMPAIGN/URBANA, IL, US) observed 1753 UTC 30 June 2015
Temperature: 26.1°C (79°F)
Dewpoint: 20.0°C (68°F) [RH = 69%]
Pressure (altimeter): 29.85 inches Hg (1010.9 mb)
[Sea-level pressure: 1010.1 mb]
Winds: from the WNW (290 degrees) at 8 MPH (7 knots; 3.6 m/s)
Visibility: 10 or more miles (16+ km)
Ceiling: 5000 feet AGL
Clouds: scattered clouds at 2800 feet AGL
overcast cloud deck at 5000 feet AGL
Weather: no significant weather observed at this time

Forecast for: KCMI (CHAMPAIGN/URBANA, IL, US)
Text: KCMI 301731Z 3018/0118 29008KT P6SM SCT060
Forecast period: 1800 UTC 30 June 2015 to 0000 UTC 01 July 2015
Forecast type: FROM: standard forecast or significant change
Winds: from the WNW (290 degrees) at 9 MPH (8 knots; 4.2 m/s)
Visibility: 6 or more miles (10+ km)
Clouds: scattered clouds at 6000 feet AGL
Weather: no significant weather forecast for this period
Text: FM010000 33005KT P6SM SKC
Forecast period: 0000 to 0900 UTC 01 July 2015
Forecast type: FROM: standard forecast or significant change
Winds: from the NNW (330 degrees) at 6 MPH (5 knots; 2.6 m/s)
Visibility: 6 or more miles (10+ km)
Clouds: clear skies
Weather: no significant weather forecast for this period
Text: FM010900 03003KT 3SM BR BKN250
Forecast period: 0900 to 1400 UTC 01 July 2015
Forecast type: FROM: standard forecast or significant change
Winds: from the NNE (30 degrees) at 3 MPH (3 knots; 1.6 m/s)
Visibility: 3 miles (5 km)
Ceiling: 25000 feet AGL
Clouds: broken clouds at 25000 feet AGL
Weather: BR  (mist)
Text: FM011400 08006KT P6SM BKN035
Forecast period: 1400 to 1800 UTC 01 July 2015
Forecast type: FROM: standard forecast or significant change
Winds: from the E (80 degrees) at 7 MPH (6 knots; 3.1 m/s)
Visibility: 6 or more miles (10+ km)
Ceiling: 3500 feet AGL
Clouds: broken clouds at 3500 feet AGL
Weather: no significant weather forecast for this period